createdAt,value
2016-11-04T00:00:45.530Z,0
2016-11-04T00:01:45.487Z,0
2016-11-04T00:02:45.169Z,0
2016-11-04T00:03:45.100Z,0
2016-11-04T00:04:45.050Z,0
2016-11-04T00:05:45.314Z,0
2016-11-04T00:06:45.272Z,0
2016-11-04T00:07:44.931Z,0
2016-11-04T00:08:45.189Z,0
2016-11-04T00:09:45.147Z,0
2016-11-04T00:10:44.802Z,0
2016-11-04T00:11:45.104Z,0
2016-11-04T00:12:45.026Z,0
2016-11-04T00:13:44.381Z,0
2016-11-04T00:14:44.644Z,0
2016-11-04T00:15:44.899Z,0
2016-11-04T00:16:44.869Z,0
2016-11-04T00:17:44.512Z,0
2016-11-04T00:18:44.770Z,0
2016-11-04T00:19:44.431Z,0
2016-11-04T00:20:44.691Z,0
2016-11-04T00:21:44.647Z,0
2016-11-04T00:22:44.603Z,0
2016-11-04T00:23:44.564Z,0
2016-11-04T00:24:44.225Z,0
2016-11-04T00:25:44.479Z,0
2016-11-04T00:26:44.438Z,0
2016-11-04T00:27:44.091Z,0
2016-11-04T00:28:44.056Z,0
2016-11-04T00:29:44.313Z,0
2016-11-04T00:30:44.276Z,0
2016-11-04T00:31:44.232Z,0
2016-11-04T00:32:44.204Z,0
2016-11-04T00:33:44.146Z,0
2016-11-04T00:34:44.105Z,0
2016-11-04T00:35:44.064Z,0
2016-11-04T00:36:44.024Z,0
2016-11-04T00:37:43.980Z,0
2016-11-04T00:38:43.942Z,0
2016-11-04T00:39:43.898Z,0
2016-11-04T00:40:43.891Z,0
2016-11-04T00:41:43.519Z,0
2016-11-04T00:42:43.163Z,0
2016-11-04T00:43:43.729Z,0
2016-11-04T00:44:43.692Z,0
2016-11-04T00:45:43.647Z,0
2016-11-04T00:46:43.620Z,0
2016-11-04T00:47:43.570Z,0
2016-11-04T00:48:42.921Z,0
2016-11-04T00:49:43.179Z,0
2016-11-04T00:50:43.436Z,0
2016-11-04T00:51:43.390Z,0
2016-11-04T00:52:43.363Z,0
2016-11-04T00:53:43.314Z,0
2016-11-04T00:54:42.970Z,0
2016-11-04T00:55:42.931Z,0
2016-11-04T00:56:42.889Z,0
2016-11-04T00:57:43.158Z,0
2016-11-04T00:58:43.105Z,0
2016-11-04T00:59:43.066Z,0
2016-11-04T01:00:42.718Z,0
2016-11-04T01:01:42.974Z,0
2016-11-04T01:02:42.937Z,0
2016-11-04T01:03:42.596Z,0
2016-11-04T01:04:42.559Z,0
2016-11-04T01:05:42.830Z,0
2016-11-04T01:06:42.767Z,0
2016-11-04T01:07:42.732Z,0
2016-11-04T01:08:42.690Z,0
2016-11-04T01:09:42.344Z,0
2016-11-04T01:10:42.007Z,0
2016-11-04T01:11:41.958Z,0
2016-11-04T01:12:42.523Z,0
2016-11-04T01:13:42.478Z,0
2016-11-04T01:14:42.438Z,0
2016-11-04T01:15:42.398Z,0
2016-11-04T01:16:42.378Z,0
2016-11-04T01:17:42.316Z,0
2016-11-04T01:18:41.983Z,0
2016-11-04T01:19:42.264Z,0
2016-11-04T01:20:42.194Z,0
2016-11-04T01:21:42.141Z,0
2016-11-04T01:22:42.101Z,0
2016-11-04T01:23:42.059Z,0
2016-11-04T01:24:42.014Z,0
2016-11-04T01:25:41.971Z,0
2016-11-04T01:26:41.935Z,0
2016-11-04T01:27:41.892Z,0
2016-11-04T01:28:41.552Z,0
2016-11-04T01:29:41.805Z,0
2016-11-04T01:30:41.461Z,0
2016-11-04T01:31:41.761Z,0
2016-11-04T01:32:41.683Z,0
2016-11-04T01:33:41.040Z,0
2016-11-04T01:34:41.604Z,0
2016-11-04T01:35:41.574Z,0
2016-11-04T01:36:41.515Z,0
2016-11-04T01:37:41.468Z,0
2016-11-04T01:38:41.129Z,0
2016-11-04T01:39:40.784Z,0
2016-11-04T01:40:41.343Z,0
2016-11-04T01:41:41.351Z,0
2016-11-04T01:42:41.264Z,0
2016-11-04T01:43:41.270Z,0
2016-11-04T01:44:41.179Z,0
2016-11-04T01:45:41.139Z,0
2016-11-04T01:46:41.095Z,0
2016-11-04T01:47:40.754Z,0
2016-11-04T01:48:41.011Z,0
2016-11-04T01:49:40.971Z,0
2016-11-04T01:50:40.624Z,0
2016-11-04T01:51:40.880Z,0
2016-11-04T01:52:40.848Z,0
2016-11-04T01:53:40.200Z,0
2016-11-04T01:54:40.768Z,0
2016-11-04T01:55:40.750Z,0
2016-11-04T01:56:40.675Z,0
2016-11-04T01:57:40.633Z,0
2016-11-04T01:58:40.592Z,0
2016-11-04T01:59:40.547Z,0
2016-11-04T02:00:40.203Z,0
2016-11-04T02:01:40.162Z,0
2016-11-04T02:02:40.422Z,0
2016-11-04T02:03:40.380Z,0
2016-11-04T02:04:40.372Z,0
2016-11-04T02:05:40.301Z,0
2016-11-04T02:06:39.951Z,0
2016-11-04T02:07:40.209Z,0
2016-11-04T02:08:39.872Z,0
2016-11-04T02:09:39.826Z,0
2016-11-04T02:10:40.081Z,0
2016-11-04T02:11:40.041Z,0
2016-11-04T02:12:40.000Z,0
2016-11-04T02:13:39.958Z,0
2016-11-04T02:14:39.912Z,0
2016-11-04T02:15:39.877Z,0
2016-11-04T02:16:39.840Z,0
2016-11-04T02:17:39.824Z,0
2016-11-04T02:18:39.758Z,0
2016-11-04T02:19:39.711Z,0
2016-11-04T02:20:39.662Z,0
2016-11-04T02:21:39.621Z,0
2016-11-04T02:22:39.577Z,0
2016-11-04T02:23:39.536Z,0
2016-11-04T02:24:39.494Z,0
2016-11-04T02:25:39.450Z,0
2016-11-04T02:26:39.106Z,0
2016-11-04T02:27:39.367Z,0
2016-11-04T02:28:39.029Z,0
2016-11-04T02:29:38.980Z,0
2016-11-04T02:30:39.242Z,0
2016-11-04T02:31:38.893Z,0
2016-11-04T02:32:39.162Z,0
2016-11-04T02:33:39.114Z,0
2016-11-04T02:34:39.112Z,0
2016-11-04T02:35:39.035Z,0
2016-11-04T02:36:38.991Z,0
2016-11-04T02:37:38.952Z,0
2016-11-04T02:38:38.903Z,0
2016-11-04T02:39:38.866Z,0
2016-11-04T02:40:38.815Z,0
2016-11-04T02:41:38.778Z,0
2016-11-04T02:42:38.773Z,0
2016-11-04T02:43:38.694Z,0
2016-11-04T02:44:38.659Z,0
2016-11-04T02:45:38.311Z,0
2016-11-04T02:46:38.282Z,0
2016-11-04T02:47:38.229Z,0
2016-11-04T02:48:38.480Z,0
2016-11-04T02:49:38.170Z,0
2016-11-04T02:50:38.398Z,0
2016-11-04T02:51:38.355Z,0
2016-11-04T02:52:38.313Z,0
2016-11-04T02:53:38.273Z,0
2016-11-04T02:54:38.228Z,0
2016-11-04T02:55:38.192Z,0
2016-11-04T02:56:38.183Z,0
2016-11-04T02:57:38.105Z,0
2016-11-04T02:58:38.057Z,0
2016-11-04T02:59:38.028Z,0
2016-11-04T03:00:37.979Z,0
2016-11-04T03:01:37.632Z,0
2016-11-04T03:02:37.891Z,0
2016-11-04T03:03:37.883Z,0
2016-11-04T03:04:37.812Z,0
2016-11-04T03:05:37.772Z,0
2016-11-04T03:06:37.119Z,0
2016-11-04T03:07:37.376Z,0
2016-11-04T03:08:37.645Z,0
2016-11-04T03:09:37.300Z,0
2016-11-04T03:10:37.558Z,0
2016-11-04T03:11:37.513Z,0
2016-11-04T03:12:37.467Z,0
2016-11-04T03:13:37.126Z,0
2016-11-04T03:14:37.389Z,0
2016-11-04T03:15:37.342Z,0
2016-11-04T03:16:37.302Z,0
2016-11-04T03:17:37.261Z,0
2016-11-04T03:18:37.215Z,0
2016-11-04T03:19:36.875Z,0
2016-11-04T03:20:37.131Z,0
2016-11-04T03:21:36.787Z,0
2016-11-04T03:22:37.044Z,0
2016-11-04T03:23:37.011Z,0
2016-11-04T03:24:36.963Z,0
2016-11-04T03:25:36.915Z,0
2016-11-04T03:26:36.881Z,0
2016-11-04T03:27:36.838Z,0
2016-11-04T03:28:36.490Z,0
2016-11-04T03:29:36.753Z,0
2016-11-04T03:30:36.705Z,0
2016-11-04T03:31:36.662Z,0
2016-11-04T03:32:36.625Z,0
2016-11-04T03:33:36.277Z,0
2016-11-04T03:34:36.241Z,0
2016-11-04T03:35:36.503Z,0
2016-11-04T03:36:36.504Z,0
2016-11-04T03:37:36.411Z,0
2016-11-04T03:38:36.374Z,0
2016-11-04T03:39:36.022Z,0
2016-11-04T03:40:35.984Z,0
2016-11-04T03:41:36.251Z,0
2016-11-04T03:42:35.899Z,0
2016-11-04T03:43:36.154Z,0
2016-11-04T03:44:35.843Z,0
2016-11-04T03:45:36.074Z,0
2016-11-04T03:46:35.726Z,0
2016-11-04T03:47:35.689Z,0
2016-11-04T03:48:35.646Z,0
2016-11-04T03:49:35.908Z,0
2016-11-04T03:50:35.861Z,0
2016-11-04T03:51:35.847Z,0
2016-11-04T03:52:35.806Z,0
2016-11-04T03:53:35.739Z,0
2016-11-04T03:54:35.686Z,0
2016-11-04T03:55:35.653Z,0
2016-11-04T03:56:35.605Z,0
2016-11-04T03:57:35.570Z,0
2016-11-04T03:58:35.526Z,0
2016-11-04T03:59:35.475Z,0
2016-11-04T04:00:35.440Z,0
2016-11-04T04:01:35.395Z,0
2016-11-04T04:02:35.050Z,0
2016-11-04T04:03:35.308Z,0
2016-11-04T04:04:35.264Z,0
2016-11-04T04:05:35.222Z,0
2016-11-04T04:06:35.180Z,0
2016-11-04T04:07:34.532Z,0
2016-11-04T04:08:35.095Z,0
2016-11-04T04:09:34.478Z,0
2016-11-04T04:10:35.008Z,0
2016-11-04T04:11:34.969Z,0
2016-11-04T04:12:34.928Z,0
2016-11-04T04:13:34.883Z,0
2016-11-04T04:14:34.246Z,0
2016-11-04T04:15:33.892Z,0
2016-11-04T04:16:34.452Z,0
2016-11-04T04:17:34.419Z,0
2016-11-04T04:18:34.668Z,0
2016-11-04T04:19:34.627Z,0
2016-11-04T04:20:34.582Z,0
2016-11-04T04:21:34.235Z,0
2016-11-04T04:22:34.201Z,0
2016-11-04T04:23:34.459Z,0
2016-11-04T04:24:34.117Z,0
2016-11-04T04:25:34.403Z,0
2016-11-04T04:26:33.732Z,0
2016-11-04T04:27:33.988Z,0
2016-11-04T04:28:33.647Z,0
2016-11-04T04:29:34.240Z,0
2016-11-04T04:30:33.856Z,0
2016-11-04T04:31:34.153Z,0
2016-11-04T04:32:34.070Z,0
2016-11-04T04:33:34.033Z,0
2016-11-04T04:34:33.991Z,0
2016-11-04T04:35:33.649Z,0
2016-11-04T04:36:33.912Z,0
2016-11-04T04:37:33.870Z,0
2016-11-04T04:38:33.824Z,0
2016-11-04T04:39:33.781Z,0
2016-11-04T04:40:33.731Z,0
2016-11-04T04:41:33.736Z,0
2016-11-04T04:42:33.651Z,0
2016-11-04T04:43:33.338Z,0
2016-11-04T04:44:33.267Z,0
2016-11-04T04:45:33.558Z,0
2016-11-04T04:46:33.213Z,0
2016-11-04T04:47:33.435Z,0
2016-11-04T04:48:33.401Z,0
2016-11-04T04:49:33.354Z,0
2016-11-04T04:50:32.708Z,0
2016-11-04T04:51:32.968Z,0
2016-11-04T04:52:33.230Z,0
2016-11-04T04:53:33.186Z,0
2016-11-04T04:54:33.144Z,0
2016-11-04T04:55:33.098Z,0
2016-11-04T04:56:33.064Z,0
2016-11-04T04:57:32.716Z,0
2016-11-04T04:58:32.671Z,0
2016-11-04T04:59:32.935Z,0
2016-11-04T05:00:32.885Z,0
2016-11-04T05:01:32.847Z,0
2016-11-04T05:02:32.501Z,0
2016-11-04T05:03:32.816Z,0
2016-11-04T05:04:32.714Z,0
2016-11-04T05:05:32.369Z,0
2016-11-04T05:06:32.635Z,0
2016-11-04T05:07:31.980Z,0
2016-11-04T05:08:31.957Z,0
2016-11-04T05:09:32.501Z,0
2016-11-04T05:10:32.462Z,0
2016-11-04T05:11:32.121Z,0
2016-11-04T05:12:32.377Z,0
2016-11-04T05:13:32.055Z,0
2016-11-04T05:14:32.292Z,0
2016-11-04T05:15:32.251Z,0
2016-11-04T05:16:32.205Z,0
2016-11-04T05:17:32.161Z,0
2016-11-04T05:18:31.817Z,0
2016-11-04T05:19:32.079Z,0
2016-11-04T05:20:31.735Z,0
2016-11-04T05:21:32.000Z,0
2016-11-04T05:22:31.649Z,0
2016-11-04T05:23:31.910Z,0
2016-11-04T05:24:31.869Z,0
2016-11-04T05:25:31.827Z,0
2016-11-04T05:26:31.180Z,0
2016-11-04T05:27:31.746Z,0
2016-11-04T05:28:31.695Z,0
2016-11-04T05:29:31.358Z,0
2016-11-04T05:30:31.651Z,0
2016-11-04T05:31:31.575Z,0
2016-11-04T05:32:31.231Z,0
2016-11-04T05:33:31.184Z,0
2016-11-04T05:34:31.155Z,0
2016-11-04T05:35:31.101Z,0
2016-11-04T05:36:31.366Z,0
2016-11-04T05:37:31.021Z,0
2016-11-04T05:38:30.974Z,0
2016-11-04T05:39:31.235Z,0
2016-11-04T05:40:30.890Z,0
2016-11-04T05:41:31.157Z,0
2016-11-04T05:42:31.111Z,4
2016-11-04T05:43:31.065Z,4
2016-11-04T05:44:30.723Z,0
2016-11-04T05:45:30.985Z,4
2016-11-04T05:46:30.640Z,4
2016-11-04T05:47:30.599Z,4
2016-11-04T05:48:30.252Z,4
2016-11-04T05:49:30.206Z,4
2016-11-04T05:50:30.767Z,4
2016-11-04T05:51:30.127Z,8
2016-11-04T05:52:30.691Z,8
2016-11-04T05:53:30.648Z,12
2016-11-04T05:54:30.604Z,12
2016-11-04T05:55:30.563Z,16
2016-11-04T05:56:30.526Z,16
2016-11-04T05:57:30.177Z,20
2016-11-04T05:58:30.440Z,24
2016-11-04T05:59:30.396Z,28
2016-11-04T06:00:30.047Z,32
2016-11-04T06:01:30.316Z,36
2016-11-04T06:02:29.965Z,44
2016-11-04T06:03:30.230Z,52
2016-11-04T06:04:29.881Z,60
2016-11-04T06:05:30.147Z,68
2016-11-04T06:06:30.100Z,76
2016-11-04T06:07:30.072Z,84
2016-11-04T06:08:30.021Z,96
2016-11-04T06:09:29.710Z,104
2016-11-04T06:10:29.949Z,108
2016-11-04T06:11:29.894Z,116
2016-11-04T06:12:29.555Z,120
2016-11-04T06:13:29.809Z,128
2016-11-04T06:14:29.474Z,132
2016-11-04T06:15:29.424Z,144
2016-11-04T06:16:29.380Z,152
2016-11-04T06:17:29.337Z,164
2016-11-04T06:18:29.302Z,184
2016-11-04T06:19:29.559Z,208
2016-11-04T06:20:29.224Z,228
2016-11-04T06:21:29.176Z,252
2016-11-04T06:22:28.831Z,280
2016-11-04T06:23:29.393Z,304
2016-11-04T06:24:29.062Z,328
2016-11-04T06:25:29.316Z,344
2016-11-04T06:26:28.969Z,356
2016-11-04T06:27:28.622Z,380
2016-11-04T06:28:28.883Z,404
2016-11-04T06:29:28.850Z,428
2016-11-04T06:30:28.801Z,448
2016-11-04T06:31:28.759Z,456
2016-11-04T06:32:29.026Z,472
2016-11-04T06:33:28.980Z,484
2016-11-04T06:34:28.937Z,500
2016-11-04T06:35:28.933Z,516
2016-11-04T06:36:28.252Z,532
2016-11-04T06:37:28.524Z,556
2016-11-04T06:38:28.473Z,588
2016-11-04T06:39:28.732Z,628
2016-11-04T06:40:28.695Z,672
2016-11-04T06:41:28.344Z,696
2016-11-04T06:42:28.609Z,724
2016-11-04T06:43:28.265Z,752
2016-11-04T06:44:28.227Z,788
2016-11-04T06:45:28.497Z,832
2016-11-04T06:46:28.444Z,864
2016-11-04T06:47:28.408Z,876
2016-11-04T06:48:28.067Z,876
2016-11-04T06:49:28.320Z,868
2016-11-04T06:50:28.289Z,864
2016-11-04T06:51:28.241Z,844
2016-11-04T06:52:28.197Z,828
2016-11-04T06:53:27.612Z,840
2016-11-04T06:54:28.110Z,884
2016-11-04T06:55:27.769Z,932
2016-11-04T06:56:28.028Z,1032
2016-11-04T06:57:27.989Z,1044
2016-11-04T06:58:27.341Z,1008
2016-11-04T06:59:27.605Z,1008
2016-11-04T07:00:27.560Z,1032
2016-11-04T07:01:27.532Z,1140
2016-11-04T07:02:27.787Z,1208
2016-11-04T07:03:27.438Z,1180
2016-11-04T07:04:27.424Z,1160
2016-11-04T07:05:27.358Z,1168
2016-11-04T07:06:27.614Z,1340
2016-11-04T07:07:27.275Z,1540
2016-11-04T07:08:27.230Z,1668
2016-11-04T07:09:27.228Z,1732
2016-11-04T07:10:27.153Z,1828
2016-11-04T07:11:27.107Z,1988
2016-11-04T07:12:27.067Z,2076
2016-11-04T07:13:27.027Z,2136
2016-11-04T07:14:26.985Z,2112
2016-11-04T07:15:27.243Z,2024
2016-11-04T07:16:26.901Z,2000
2016-11-04T07:17:27.178Z,2064
2016-11-04T07:18:27.133Z,2044
2016-11-04T07:19:26.478Z,2076
2016-11-04T07:20:27.041Z,2012
2016-11-04T07:21:26.695Z,1992
2016-11-04T07:22:26.688Z,1824
2016-11-04T07:23:26.914Z,1920
2016-11-04T07:24:26.882Z,2084
2016-11-04T07:25:26.837Z,2276
2016-11-04T07:26:26.492Z,2412
2016-11-04T07:27:26.760Z,2540
2016-11-04T07:28:26.712Z,2648
2016-11-04T07:29:26.366Z,2516
2016-11-04T07:30:26.633Z,2400
2016-11-04T07:31:26.290Z,3236
2016-11-04T07:32:26.544Z,3444
2016-11-04T07:33:26.204Z,3492
2016-11-04T07:34:26.468Z,3480
2016-11-04T07:35:26.430Z,3368
2016-11-04T07:36:25.781Z,3496
2016-11-04T07:37:25.739Z,3268
2016-11-04T07:38:26.303Z,3500
2016-11-04T07:39:26.265Z,3328
2016-11-04T07:40:25.921Z,2800
2016-11-04T07:41:26.178Z,2700
2016-11-04T07:42:26.145Z,2540
2016-11-04T07:43:26.102Z,2312
2016-11-04T07:44:26.062Z,2596
2016-11-04T07:45:26.018Z,2616
2016-11-04T07:46:25.681Z,2528
2016-11-04T07:47:25.951Z,2084
2016-11-04T07:48:25.897Z,2124
2016-11-04T07:49:25.855Z,2652
2016-11-04T07:50:25.821Z,2568
2016-11-04T07:51:25.477Z,2716
2016-11-04T07:52:25.436Z,2828
2016-11-04T07:53:25.698Z,2648
2016-11-04T07:54:25.655Z,3540
2016-11-04T07:55:25.023Z,3640
2016-11-04T07:56:25.574Z,3712
2016-11-04T07:57:25.533Z,3832
2016-11-04T07:58:25.188Z,3864
2016-11-04T07:59:25.451Z,3692
2016-11-04T08:00:25.115Z,3756
2016-11-04T08:01:25.071Z,3456
2016-11-04T08:02:25.030Z,3468
2016-11-04T08:03:24.989Z,3620
2016-11-04T08:04:25.247Z,3824
2016-11-04T08:05:24.920Z,3972
2016-11-04T08:06:25.167Z,3960
2016-11-04T08:07:25.134Z,3992
2016-11-04T08:08:24.788Z,4204
2016-11-04T08:09:24.749Z,4244
2016-11-04T08:10:24.708Z,4256
2016-11-04T08:11:24.973Z,4264
2016-11-04T08:12:24.934Z,4468
2016-11-04T08:13:23.985Z,4612
2016-11-04T08:14:24.551Z,4484
2016-11-04T08:15:24.816Z,4412
2016-11-04T08:16:24.178Z,4332
2016-11-04T08:17:24.772Z,4428
2016-11-04T08:18:24.387Z,4664
2016-11-04T08:19:24.348Z,4896
2016-11-04T08:20:24.637Z,5288
2016-11-04T08:21:24.569Z,5016
2016-11-04T08:22:24.231Z,4660
2016-11-04T08:23:24.504Z,4584
2016-11-04T08:24:24.451Z,4604
2016-11-04T08:25:24.413Z,4412
2016-11-04T08:26:24.071Z,4440
2016-11-04T08:27:24.336Z,4564
2016-11-04T08:28:23.992Z,4576
2016-11-04T08:29:24.257Z,4628
2016-11-04T08:30:23.908Z,4848
2016-11-04T08:31:23.872Z,5344
2016-11-04T08:32:24.130Z,5064
2016-11-04T08:33:23.800Z,3660
2016-11-04T08:34:24.055Z,4104
2016-11-04T08:35:24.023Z,4648
2016-11-04T08:36:23.973Z,4576
2016-11-04T08:37:23.937Z,3676
2016-11-04T08:38:23.609Z,2964
2016-11-04T08:39:23.554Z,2808
2016-11-04T08:40:23.816Z,3632
2016-11-04T08:41:23.797Z,3124
2016-11-04T08:42:23.736Z,3124
2016-11-04T08:43:23.402Z,3388
2016-11-04T08:44:23.660Z,3824
2016-11-04T08:45:23.625Z,3828
2016-11-04T08:46:23.616Z,4020
2016-11-04T08:47:23.241Z,3960
2016-11-04T08:48:23.504Z,3680
2016-11-04T08:49:23.472Z,3592
2016-11-04T08:50:23.126Z,3064
2016-11-04T08:51:23.394Z,2900
2016-11-04T08:52:22.744Z,3812
2016-11-04T08:53:23.310Z,4488
2016-11-04T08:54:22.664Z,4436
2016-11-04T08:55:23.231Z,4680
2016-11-04T08:56:23.195Z,4380
2016-11-04T08:57:22.246Z,5236
2016-11-04T08:58:22.507Z,5428
2016-11-04T08:59:22.467Z,6096
2016-11-04T09:00:23.037Z,6356
2016-11-04T09:01:22.394Z,5248
2016-11-04T09:02:22.350Z,5372
2016-11-04T09:03:22.619Z,6324
2016-11-04T09:04:22.575Z,5552
2016-11-04T09:05:22.845Z,5692
2016-11-04T09:06:22.496Z,4896
2016-11-04T09:07:22.461Z,4440
2016-11-04T09:08:22.726Z,4232
2016-11-04T09:09:22.380Z,4824
2016-11-04T09:10:22.640Z,4880
2016-11-04T09:11:22.604Z,5232
2016-11-04T09:12:22.601Z,4636
2016-11-04T09:13:22.526Z,4748
2016-11-04T09:14:21.885Z,4720
2016-11-04T09:15:22.147Z,4872
2016-11-04T09:16:21.804Z,5196
2016-11-04T09:17:22.374Z,5812
2016-11-04T09:18:22.100Z,6808
2016-11-04T09:19:21.689Z,7156
2016-11-04T09:20:21.952Z,6700
2016-11-04T09:21:21.912Z,6080
2016-11-04T09:22:22.176Z,5676
2016-11-04T09:23:22.143Z,5736
2016-11-04T09:24:21.800Z,6168
2016-11-04T09:25:22.062Z,6768
2016-11-04T09:26:22.023Z,7156
2016-11-04T09:27:21.981Z,6596
2016-11-04T09:28:21.951Z,6348
2016-11-04T09:29:21.612Z,6268
2016-11-04T09:30:21.880Z,6608
2016-11-04T09:31:21.535Z,6756
2016-11-04T09:32:21.826Z,6576
2016-11-04T09:33:21.452Z,6608
2016-11-04T09:34:21.721Z,6508
2016-11-04T09:35:21.689Z,7348
2016-11-04T09:36:21.033Z,7448
2016-11-04T09:37:21.297Z,8720
2016-11-04T09:38:21.260Z,9944
2016-11-04T09:39:21.523Z,12692
2016-11-04T09:40:21.490Z,14972
2016-11-04T09:41:21.454Z,17536
2016-11-04T09:42:21.107Z,20544
2016-11-04T09:43:21.070Z,33120
2016-11-04T09:44:21.030Z,31008
2016-11-04T09:45:20.996Z,25024
2016-11-04T09:46:20.956Z,25280
2016-11-04T09:47:20.950Z,21984
2016-11-04T09:48:20.581Z,20992
2016-11-04T09:49:21.144Z,18880
2016-11-04T09:50:21.104Z,20928
2016-11-04T09:51:21.072Z,20384
2016-11-04T09:52:21.034Z,18208
2016-11-04T09:53:20.697Z,20000
2016-11-04T09:54:20.981Z,21120
2016-11-04T09:55:20.318Z,20608
2016-11-04T09:56:20.888Z,22048
2016-11-04T09:57:20.854Z,20608
2016-11-04T09:58:20.541Z,18592
2016-11-04T09:59:20.779Z,17568
2016-11-04T10:00:20.774Z,16432
2016-11-04T10:01:20.708Z,16992
2016-11-04T10:02:20.072Z,16628
2016-11-04T10:03:20.639Z,16460
2016-11-04T10:04:19.994Z,17216
2016-11-04T10:05:20.573Z,18016
2016-11-04T10:06:20.529Z,18336
2016-11-04T10:07:20.188Z,19616
2016-11-04T10:08:20.466Z,18912
2016-11-04T10:09:20.134Z,20448
2016-11-04T10:10:20.393Z,22176
2016-11-04T10:11:20.357Z,21632
2016-11-04T10:12:19.415Z,21088
2016-11-04T10:13:20.283Z,20704
2016-11-04T10:14:19.951Z,22784
2016-11-04T10:15:19.956Z,22528
2016-11-04T10:16:19.572Z,20384
2016-11-04T10:17:19.536Z,21824
2016-11-04T10:18:20.110Z,22048
2016-11-04T10:19:19.771Z,23296
2016-11-04T10:20:19.436Z,23584
2016-11-04T10:21:20.008Z,23488
2016-11-04T10:22:19.985Z,24032
2016-11-04T10:23:19.961Z,24192
2016-11-04T10:24:19.930Z,24416
2016-11-04T10:25:19.865Z,24416
2016-11-04T10:26:19.831Z,29184
2016-11-04T10:27:19.192Z,31616
2016-11-04T10:28:19.762Z,30240
2016-11-04T10:29:19.734Z,28288
2016-11-04T10:30:19.698Z,33888
2016-11-04T10:31:19.658Z,30816
2016-11-04T10:32:19.658Z,38656
2016-11-04T10:33:19.291Z,41312
2016-11-04T10:34:19.267Z,45440
2016-11-04T10:35:18.924Z,56800
2016-11-04T10:36:19.190Z,58432
2016-11-04T10:37:19.165Z,55520
2016-11-04T10:38:19.131Z,51872
2016-11-04T10:39:19.404Z,48768
2016-11-04T10:40:19.375Z,42368
2016-11-04T10:41:19.032Z,48064
2016-11-04T10:42:19.004Z,49600
2016-11-04T10:43:19.280Z,49536
2016-11-04T10:44:18.641Z,48832
2016-11-04T10:45:18.914Z,46912
2016-11-04T10:46:18.887Z,44128
2016-11-04T10:47:18.855Z,46432
2016-11-04T10:48:19.129Z,47232
2016-11-04T10:49:18.793Z,44032
2016-11-04T10:50:19.066Z,30304
2016-11-04T10:51:19.033Z,36512
2016-11-04T10:52:19.015Z,37824
2016-11-04T10:53:18.680Z,36128
2016-11-04T10:54:18.988Z,32608
2016-11-04T10:55:18.330Z,25600
2016-11-04T10:56:18.600Z,23584
2016-11-04T10:57:18.564Z,22912
2016-11-04T10:58:18.363Z,20384
2016-11-04T10:59:18.803Z,19968
2016-11-04T11:00:18.775Z,22304
2016-11-04T11:01:18.748Z,24448
2016-11-04T11:02:18.715Z,24256
2016-11-04T11:03:18.388Z,21792
2016-11-04T11:04:18.670Z,19296
2016-11-04T11:05:18.636Z,17216
2016-11-04T11:06:18.603Z,16576
2016-11-04T11:07:18.274Z,16616
2016-11-04T11:08:18.542Z,18176
2016-11-04T11:09:18.520Z,20000
2016-11-04T11:10:18.489Z,24288
2016-11-04T11:11:18.471Z,26208
2016-11-04T11:12:18.492Z,23424
2016-11-04T11:13:18.102Z,21888
2016-11-04T11:14:18.381Z,21888
2016-11-04T11:15:18.340Z,21856
2016-11-04T11:16:18.307Z,26880
2016-11-04T11:17:17.978Z,34368
2016-11-04T11:18:18.246Z,33504
2016-11-04T11:19:18.217Z,29280
2016-11-04T11:20:17.888Z,21536
2016-11-04T11:21:17.553Z,16356
2016-11-04T11:22:18.137Z,15604
2016-11-04T11:23:17.798Z,14824
2016-11-04T11:24:18.070Z,14200
2016-11-04T11:25:17.742Z,14172
2016-11-04T11:26:18.019Z,14440
2016-11-04T11:27:17.683Z,14032
2016-11-04T11:28:17.360Z,14056
2016-11-04T11:29:17.930Z,13836
2016-11-04T11:30:17.600Z,13460
2016-11-04T11:31:17.562Z,13276
2016-11-04T11:32:17.523Z,13176
2016-11-04T11:33:17.503Z,12512
2016-11-04T11:34:16.862Z,12296
2016-11-04T11:35:17.751Z,12172
2016-11-04T11:36:17.700Z,11932
2016-11-04T11:37:17.373Z,11712
2016-11-04T11:38:17.633Z,11560
2016-11-04T11:39:17.293Z,11332
2016-11-04T11:40:16.969Z,11256
2016-11-04T11:41:17.565Z,11140
2016-11-04T11:42:17.194Z,11108
2016-11-04T11:43:17.469Z,10964
2016-11-04T11:44:17.442Z,10820
2016-11-04T11:45:17.100Z,10636
2016-11-04T11:46:17.371Z,10364
2016-11-04T11:47:17.046Z,9828
2016-11-04T11:48:17.299Z,9012
2016-11-04T11:49:17.280Z,8980
2016-11-04T11:50:16.952Z,8440
2016-11-04T11:51:16.893Z,7912
2016-11-04T11:52:16.562Z,8288
2016-11-04T11:53:17.128Z,8168
2016-11-04T11:54:16.798Z,8232
2016-11-04T11:55:17.061Z,8476
2016-11-04T11:56:17.036Z,8684
2016-11-04T11:57:16.693Z,8832
2016-11-04T11:58:16.656Z,9076
2016-11-04T11:59:16.935Z,8984
2016-11-04T12:00:16.894Z,9068
2016-11-04T12:01:16.559Z,8708
2016-11-04T12:02:16.220Z,8764
2016-11-04T12:03:16.786Z,9044
2016-11-04T12:04:16.752Z,9140
2016-11-04T12:05:16.418Z,8896
2016-11-04T12:06:16.382Z,8468
2016-11-04T12:07:16.644Z,7892
2016-11-04T12:08:16.315Z,7672
2016-11-04T12:09:16.276Z,7588
2016-11-04T12:10:16.579Z,7560
2016-11-04T12:11:16.204Z,7344
2016-11-04T12:12:15.869Z,7024
2016-11-04T12:13:16.438Z,6832
2016-11-04T12:14:16.102Z,6608
2016-11-04T12:15:16.367Z,6364
2016-11-04T12:16:16.334Z,6148
2016-11-04T12:17:16.298Z,6476
2016-11-04T12:18:15.996Z,6328
2016-11-04T12:19:16.229Z,6168
2016-11-04T12:20:15.590Z,6600
2016-11-04T12:21:16.161Z,6884
2016-11-04T12:22:15.816Z,6936
2016-11-04T12:23:16.094Z,6828
2016-11-04T12:24:16.050Z,6932
2016-11-04T12:25:15.710Z,6720
2016-11-04T12:26:15.983Z,6736
2016-11-04T12:27:15.939Z,6824
2016-11-04T12:28:15.300Z,6776
2016-11-04T12:29:15.869Z,7092
2016-11-04T12:30:15.231Z,7212
2016-11-04T12:31:15.797Z,7292
2016-11-04T12:32:15.463Z,7388
2016-11-04T12:33:15.727Z,7440
2016-11-04T12:34:15.688Z,7512
2016-11-04T12:35:15.055Z,7580
2016-11-04T12:36:15.621Z,7696
2016-11-04T12:37:15.281Z,7672
2016-11-04T12:38:15.544Z,7984
2016-11-04T12:39:14.906Z,8088
2016-11-04T12:40:15.171Z,8288
2016-11-04T12:41:15.138Z,8652
2016-11-04T12:42:15.097Z,8960
2016-11-04T12:43:15.366Z,9024
2016-11-04T12:44:15.349Z,8756
2016-11-04T12:45:15.299Z,8448
2016-11-04T12:46:15.260Z,7992
2016-11-04T12:47:15.225Z,7640
2016-11-04T12:48:15.186Z,7576
2016-11-04T12:49:14.849Z,7620
2016-11-04T12:50:14.832Z,7388
2016-11-04T12:51:15.083Z,7020
2016-11-04T12:52:15.053Z,7064
2016-11-04T12:53:15.013Z,6788
2016-11-04T12:54:14.976Z,6552
2016-11-04T12:55:14.633Z,6060
2016-11-04T12:56:14.600Z,5972
2016-11-04T12:57:14.560Z,6112
2016-11-04T12:58:14.827Z,6312
2016-11-04T12:59:14.488Z,6260
2016-11-04T13:00:14.761Z,6108
2016-11-04T13:01:14.728Z,6020
2016-11-04T13:02:14.387Z,5936
2016-11-04T13:03:14.352Z,5744
2016-11-04T13:04:14.616Z,5628
2016-11-04T13:05:14.579Z,5776
2016-11-04T13:06:14.573Z,6120
2016-11-04T13:07:14.206Z,6640
2016-11-04T13:08:14.175Z,7000
2016-11-04T13:09:14.468Z,7336
2016-11-04T13:10:14.097Z,7456
2016-11-04T13:11:14.369Z,7408
2016-11-04T13:12:13.718Z,7392
2016-11-04T13:13:14.291Z,7384
2016-11-04T13:14:14.166Z,7304
2016-11-04T13:15:13.916Z,7228
2016-11-04T13:16:14.182Z,7272
2016-11-04T13:17:13.565Z,7292
2016-11-04T13:18:13.810Z,7256
2016-11-04T13:19:13.773Z,7244
2016-11-04T13:20:13.742Z,7152
2016-11-04T13:21:14.008Z,7096
2016-11-04T13:22:13.670Z,7048
2016-11-04T13:23:13.935Z,7112
2016-11-04T13:24:13.896Z,7008
2016-11-04T13:25:13.861Z,7060
2016-11-04T13:26:13.822Z,7144
2016-11-04T13:27:13.788Z,6992
2016-11-04T13:28:13.761Z,6804
2016-11-04T13:29:13.721Z,6792
2016-11-04T13:30:13.381Z,6672
2016-11-04T13:31:13.642Z,6660
2016-11-04T13:32:13.612Z,6568
2016-11-04T13:33:13.624Z,6612
2016-11-04T13:34:13.542Z,6604
2016-11-04T13:35:13.197Z,6700
2016-11-04T13:36:13.465Z,6648
2016-11-04T13:37:13.433Z,6408
2016-11-04T13:38:13.431Z,6280
2016-11-04T13:39:13.058Z,6060
2016-11-04T13:40:12.720Z,5692
2016-11-04T13:41:13.291Z,5516
2016-11-04T13:42:13.253Z,5348
2016-11-04T13:43:13.221Z,5176
2016-11-04T13:44:13.228Z,5040
2016-11-04T13:45:12.846Z,4984
2016-11-04T13:46:13.118Z,5000
2016-11-04T13:47:13.089Z,5076
2016-11-04T13:48:12.446Z,5200
2016-11-04T13:49:13.003Z,5136
2016-11-04T13:50:12.669Z,5004
2016-11-04T13:51:12.632Z,5016
2016-11-04T13:52:12.293Z,5080